x

Buoy A01 - Mass. Bay/stellwagen (44029) Wave Buoy

3:04am - Sun 20th Apr 2014 All times are EDT. -4 hours from GMT.

  • Sig Wave height 3.0ft
  • Peak Period 11s
  • Wind
    7mph, 9mph gusts
  • Sea Temp 41°f
  • 空気 Temp 41°f
  • Sea Pressure 1028.9mb
  • Buoy A01 - Mass. Bay/stellwagen
  • Buoy A01 - Mass. Bay/stellwagen

More Historic Weather Station data

Upgrade to MSW Pro to gain access to the past 30 days of data for over 8000 Wavebouys and Weather Stations around the globe.

Join Pro

Comparision Forecast

View Surf forecast
   
Sun 04/20 3:04am 3ft 11s 7 9 mph 1028.9mb 41f 41f
2:04am 3.5ft 8s 9 11 mph 1029mb 41f 42f
1:04am 4ft 11s 7 9 mph 1028.6mb 41f 42f
12:04am 4.5ft 8s 11 13 mph 1028.1mb 41f 44f
Sat 04/19 11:04pm 3.5ft 11s 11 13 mph 1027.4mb 41f 44f
10:04pm 3.5ft 8s 11 13 mph 1027.4mb 41f 45f
9:04pm 5ft 11s 18 27 mph 1026.5mb 42f 46f
8:04pm 4ft 8s 22 27 mph 1024.8mb 42f 47f
7:04pm  -   -  16 20 mph 1023.5mb 42f 46f
6:04pm 5ft 11s 16 20 mph 1022.6mb 42f 47f
5:04pm 5ft 11s 16 18 mph 1021.9mb 41f 48f
4:04pm 5ft 11s 11 13 mph 1021.1mb 41f 49f
3:04pm 5ft 11s 16 20 mph 1020.5mb 40f 50f
2:04pm 4.5ft 8s 18 20 mph 1020.6mb 40f 49f
1:04pm 5.5ft 11s 16 20 mph 1020.8mb 40f 49f
12:04pm 5ft 8s 16 20 mph 1020.4mb 40f 49f
11:04am 5ft 11s 16
mph
1020.7mb 40f 47f
10:04am 5ft 11s 9 11 mph 1020.8mb 40f 43f
9:04am 5ft 8s 9 11 mph 1020.5mb 40f 41f
8:04am 4.5ft 11s 11 13 mph 1020.5mb 40f 40f
7:04am 5ft 11s 11 13 mph 1020.5mb 40f 40f
6:04am 6ft 11s 13 16 mph 1020.2mb 40f 39f
5:04am 5.5ft 11s 13 16 mph 1020.4mb 40f 39f
4:04am 6ft 11s 13 16 mph 1020.6mb 40f 39f
3:04am 5ft 11s 11 13 mph 1020.9mb 40f 39f
2:04am 5.5ft 11s 9 11 mph 1021.4mb 40f 39f
1:04am 5.5ft 8s 7 9 mph 1022.4mb 40f 38f
12:04am 6ft 11s 9 13 mph 1023.3mb 40f 38f
Fri 04/18 11:04pm 6ft 11s 7 9 mph 1024.4mb 40f 38f
10:04pm 6ft 8s 7
mph
1024.6mb 40f 38f
9:04pm 7ft 11s 7 9 mph 1025.1mb 40f 38f
8:04pm 6ft 8s 2 4 mph 1025.7mb 40f 38f
7:04pm 6.5ft 11s 7 9 mph 1026mb 40f 38f
6:04pm 6ft 8s 7 9 mph 1026.4mb 40f 38f
5:04pm 7ft 11s 7 9 mph 1027.6mb 40f 38f
4:04pm 5.5ft 11s 7
mph
1028.9mb 40f 38f
3:04pm 6ft 11s 7 9 mph 1029.7mb 40f 38f
2:04pm 5.5ft 8s 9 11 mph 1030.3mb 40f 38f
1:04pm 6ft 8s 9 11 mph 1030.7mb 40f 38f
12:04pm 6ft 11s 11 13 mph 1031.9mb 40f 38f
11:04am 5.5ft 8s 9 13 mph 1033.7mb 40f 39f
10:04am 6ft 11s 11 13 mph 1034.2mb 40f 38f
9:04am 6ft 8s 16 20 mph 1033.1mb 40f 38f
8:04am 5.5ft 8s 18 20 mph 1033.3mb 40f 38f
7:04am 4.5ft 8s 18 22 mph 1032.7mb 40f 38f
6:04am 5ft 8s 16 18 mph 1034.3mb 40f 38f
5:04am 3.5ft 8s 11 16 mph 1035mb 40f 38f
4:04am 4.5ft 8s 11 13 mph 1035.1mb 40f 38f
3:04am 4.5ft 8s 11 16 mph 1035.2mb 40f 37f
2:04am 4.5ft 8s 11 16 mph 1035.3mb 40f 37f
1:04am 4.5ft 6s 11 16 mph 1036.1mb 40f 37f
12:04am  -   -  13 16 mph 1037.1mb 40f 37f
Thu 04/17 11:04pm 5.5ft 8s 13 16 mph 1038.2mb 40f 36f
10:04pm 5ft 6s 11 13 mph 1039.2mb 40f 36f
9:04pm 5.5ft 6s 11 13 mph 1039.6mb 40f 36f
8:04pm 5ft 6s 13 16 mph 1039.9mb 41f 36f
7:04pm 5ft 6s 11 13 mph 1040mb 40f 36f
6:04pm 5ft 6s 13 16 mph 1040.3mb 40f 36f
5:04pm 6ft 11s 13 16 mph 1040.7mb 41f 36f
4:04pm 5.5ft 11s 13 18 mph 1040.8mb 41f 36f
3:04pm 4.5ft 6s 16 18 mph 1040.9mb 41f 36f
2:04pm 6ft 6s 16 20 mph 1041.3mb 41f 36f
1:04pm 6ft 6s 16 20 mph 1041.5mb 40f 35f
12:04pm 5.5ft 6s 18 20 mph 1041.9mb 40f 35f
11:04am 5ft 6s 18 22 mph 1042.2mb 40f 35f
10:04am 6ft 6s 22 25 mph 1042mb 40f 34f
9:04am 6ft 6s 22 27 mph 1041.6mb 40f 34f
8:04am 5ft 5s 22 27 mph 1041.2mb 40f 34f
7:04am 5ft 5s 22 27 mph 1040.4mb 40f 33f
6:04am 6ft 11s 22 27 mph 1039.6mb 40f 33f
5:04am 5.5ft 11s 22 27 mph 1038.9mb 40f 34f
4:04am 6ft 5s 20 25 mph 1038.4mb 40f 34f
3:04am 5.5ft 11s 20 25 mph 1037.2mb 40f 34f
2:04am 5.5ft 11s 20 22 mph 1036.6mb 40f 35f
1:04am 4ft 5s 18 22 mph 1035.8mb 40f 36f
12:04am 5ft 11s 20 25 mph 1035.1mb 40f 36f
Wed 04/16 11:04pm 2.5ft 4s 20 25 mph 1034.5mb 40f 37f
10:04pm 4.5ft 11s 18 20 mph 1034mb 40f 37f
9:04pm 4.5ft 11s 18 22 mph 1033.1mb 40f 38f
8:04pm  -   -  16 20 mph 1031.8mb 40f 39f
7:04pm 2.5ft 5s 18 22 mph 1030.3mb 40f 39f
6:04pm 2.5ft 5s 18 22 mph 1029.4mb 40f 40f
5:04pm  -   -  18 25 mph 1028.3mb 40f 40f
4:04pm 5ft 11s 16 20 mph 1027.5mb 40f 38f
3:04pm 4.5ft 11s 13 18 mph 1026.8mb 40f 37f
2:04pm 5ft 11s 16 20 mph 1026.4mb 40f 36f
1:04pm 5ft 11s 18 22 mph 1025.1mb 39f 35f
12:04pm 4.5ft 11s 22 27 mph 1023.9mb 39f 34f
11:04am 3.5ft 4s 25 36 mph 1022.9mb 39f 32f
10:04am 4ft 4s 27 36 mph 1021.5mb 39f 32f
9:04am 3ft 4s 29 36 mph 1020.3mb 39f 31f